sensor_id;sensor_type;location;lat;lon;timestamp;P1;durP1;ratioP1;P2;durP2;ratioP2
35644;SDS011;21764;52.042;6.830;2023-06-10T00:01:32;13.00;;;7.00;;
35644;SDS011;21764;52.042;6.830;2023-06-10T00:06:36;15.48;;;8.20;;
35644;SDS011;21764;52.042;6.830;2023-06-10T00:11:37;18.75;;;6.70;;
35644;SDS011;21764;52.042;6.830;2023-06-10T00:16:40;14.77;;;7.15;;
35644;SDS011;21764;52.042;6.830;2023-06-10T00:21:40;10.32;;;6.50;;
35644;SDS011;21764;52.042;6.830;2023-06-10T00:26:41;10.65;;;7.30;;
35644;SDS011;21764;52.042;6.830;2023-06-10T00:31:43;14.70;;;7.18;;
35644;SDS011;21764;52.042;6.830;2023-06-10T00:36:44;15.40;;;7.05;;
35644;SDS011;21764;52.042;6.830;2023-06-10T00:41:45;13.93;;;6.95;;
35644;SDS011;21764;52.042;6.830;2023-06-10T00:46:46;17.42;;;7.38;;
35644;SDS011;21764;52.042;6.830;2023-06-10T00:51:47;13.55;;;7.15;;
35644;SDS011;21764;52.042;6.830;2023-06-10T00:56:47;14.00;;;7.32;;
35644;SDS011;21764;52.042;6.830;2023-06-10T01:01:49;12.23;;;7.68;;
35644;SDS011;21764;52.042;6.830;2023-06-10T01:12:01;12.63;;;7.28;;
35644;SDS011;21764;52.042;6.830;2023-06-10T01:17:16;14.07;;;7.55;;
35644;SDS011;21764;52.042;6.830;2023-06-10T01:22:18;14.05;;;7.45;;
35644;SDS011;21764;52.042;6.830;2023-06-10T01:27:19;16.45;;;7.72;;
35644;SDS011;21764;52.042;6.830;2023-06-10T01:32:55;12.60;;;7.35;;
35644;SDS011;21764;52.042;6.830;2023-06-10T01:37:50;13.00;;;7.78;;
35644;SDS011;21764;52.042;6.830;2023-06-10T01:42:54;14.68;;;7.82;;
35644;SDS011;21764;52.042;6.830;2023-06-10T01:47:55;12.55;;;7.93;;
35644;SDS011;21764;52.042;6.830;2023-06-10T01:52:56;18.17;;;8.45;;
35644;SDS011;21764;52.042;6.830;2023-06-10T01:57:58;17.58;;;7.53;;
35644;SDS011;21764;52.042;6.830;2023-06-10T02:02:58;15.65;;;8.05;;
35644;SDS011;21764;52.042;6.830;2023-06-10T02:07:59;13.45;;;7.90;;
35644;SDS011;21764;52.042;6.830;2023-06-10T02:13:00;17.65;;;8.48;;
35644;SDS011;21764;52.042;6.830;2023-06-10T02:18:01;19.30;;;8.70;;
35644;SDS011;21764;52.042;6.830;2023-06-10T02:23:02;18.80;;;8.60;;
35644;SDS011;21764;52.042;6.830;2023-06-10T02:28:03;15.60;;;8.65;;
35644;SDS011;21764;52.042;6.830;2023-06-10T02:33:04;15.55;;;9.02;;
35644;SDS011;21764;52.042;6.830;2023-06-10T02:38:05;16.48;;;8.65;;
35644;SDS011;21764;52.042;6.830;2023-06-10T02:43:05;22.55;;;8.95;;
35644;SDS011;21764;52.042;6.830;2023-06-10T02:48:06;14.90;;;8.20;;
35644;SDS011;21764;52.042;6.830;2023-06-10T02:53:07;22.13;;;9.05;;
35644;SDS011;21764;52.042;6.830;2023-06-10T02:58:08;15.73;;;8.20;;
35644;SDS011;21764;52.042;6.830;2023-06-10T03:03:08;15.50;;;9.27;;
35644;SDS011;21764;52.042;6.830;2023-06-10T03:08:10;20.00;;;9.10;;
35644;SDS011;21764;52.042;6.830;2023-06-10T03:13:11;19.42;;;10.07;;
35644;SDS011;21764;52.042;6.830;2023-06-10T03:18:12;26.20;;;10.95;;
35644;SDS011;21764;52.042;6.830;2023-06-10T03:23:12;35.97;;;14.38;;
35644;SDS011;21764;52.042;6.830;2023-06-10T03:28:13;26.48;;;13.52;;
35644;SDS011;21764;52.042;6.830;2023-06-10T03:33:14;29.02;;;20.02;;
35644;SDS011;21764;52.042;6.830;2023-06-10T03:38:15;19.98;;;11.23;;
35644;SDS011;21764;52.042;6.830;2023-06-10T03:43:15;14.80;;;9.15;;
35644;SDS011;21764;52.042;6.830;2023-06-10T03:48:16;17.05;;;9.65;;
35644;SDS011;21764;52.042;6.830;2023-06-10T03:53:17;18.80;;;10.25;;
35644;SDS011;21764;52.042;6.830;2023-06-10T03:58:17;13.82;;;7.88;;
35644;SDS011;21764;52.042;6.830;2023-06-10T04:03:18;17.83;;;8.70;;
35644;SDS011;21764;52.042;6.830;2023-06-10T04:08:21;19.55;;;9.25;;
35644;SDS011;21764;52.042;6.830;2023-06-10T04:13:21;18.02;;;7.70;;
35644;SDS011;21764;52.042;6.830;2023-06-10T04:18:22;16.55;;;8.48;;
35644;SDS011;21764;52.042;6.830;2023-06-10T04:23:23;15.63;;;9.13;;
35644;SDS011;21764;52.042;6.830;2023-06-10T04:28:24;14.05;;;8.90;;
35644;SDS011;21764;52.042;6.830;2023-06-10T04:33:25;13.70;;;8.30;;
35644;SDS011;21764;52.042;6.830;2023-06-10T04:38:26;16.55;;;7.88;;
35644;SDS011;21764;52.042;6.830;2023-06-10T04:43:27;19.30;;;8.30;;
35644;SDS011;21764;52.042;6.830;2023-06-10T04:48:28;22.05;;;9.05;;
35644;SDS011;21764;52.042;6.830;2023-06-10T04:53:29;18.85;;;9.35;;
35644;SDS011;21764;52.042;6.830;2023-06-10T04:58:29;11.82;;;7.97;;
35644;SDS011;21764;52.042;6.830;2023-06-10T05:03:30;12.88;;;7.45;;
35644;SDS011;21764;52.042;6.830;2023-06-10T05:08:30;15.60;;;8.18;;
35644;SDS011;21764;52.042;6.830;2023-06-10T05:13:31;14.82;;;8.02;;
35644;SDS011;21764;52.042;6.830;2023-06-10T05:18:32;16.58;;;8.25;;
35644;SDS011;21764;52.042;6.830;2023-06-10T05:23:33;13.27;;;7.55;;
35644;SDS011;21764;52.042;6.830;2023-06-10T05:28:34;13.98;;;8.25;;
35644;SDS011;21764;52.042;6.830;2023-06-10T05:33:35;9.32;;;5.82;;
35644;SDS011;21764;52.042;6.830;2023-06-10T05:38:36;14.00;;;7.30;;
35644;SDS011;21764;52.042;6.830;2023-06-10T05:43:36;21.80;;;7.47;;
35644;SDS011;21764;52.042;6.830;2023-06-10T05:48:37;13.10;;;7.40;;
35644;SDS011;21764;52.042;6.830;2023-06-10T05:53:37;10.52;;;6.65;;
35644;SDS011;21764;52.042;6.830;2023-06-10T05:58:38;10.45;;;6.50;;
35644;SDS011;21764;52.042;6.830;2023-06-10T06:03:39;13.85;;;6.57;;
35644;SDS011;21764;52.042;6.830;2023-06-10T06:08:40;11.43;;;6.43;;
35644;SDS011;21764;52.042;6.830;2023-06-10T06:13:40;12.57;;;6.35;;
35644;SDS011;21764;52.042;6.830;2023-06-10T06:18:42;16.30;;;6.80;;
35644;SDS011;21764;52.042;6.830;2023-06-10T06:23:43;9.00;;;5.47;;
35644;SDS011;21764;52.042;6.830;2023-06-10T06:28:43;11.77;;;6.13;;
35644;SDS011;21764;52.042;6.830;2023-06-10T06:33:44;14.02;;;5.75;;
35644;SDS011;21764;52.042;6.830;2023-06-10T06:38:45;12.27;;;6.43;;
35644;SDS011;21764;52.042;6.830;2023-06-10T06:43:45;13.48;;;5.72;;
35644;SDS011;21764;52.042;6.830;2023-06-10T06:48:46;13.20;;;5.85;;
35644;SDS011;21764;52.042;6.830;2023-06-10T06:53:47;12.57;;;5.70;;
35644;SDS011;21764;52.042;6.830;2023-06-10T06:58:50;15.93;;;6.07;;
35644;SDS011;21764;52.042;6.830;2023-06-10T07:03:50;13.25;;;5.40;;
35644;SDS011;21764;52.042;6.830;2023-06-10T07:08:51;9.35;;;5.32;;
35644;SDS011;21764;52.042;6.830;2023-06-10T07:13:52;10.93;;;5.15;;
35644;SDS011;21764;52.042;6.830;2023-06-10T07:18:52;9.52;;;4.78;;
35644;SDS011;21764;52.042;6.830;2023-06-10T07:23:53;10.32;;;4.82;;
35644;SDS011;21764;52.042;6.830;2023-06-10T07:28:54;8.55;;;4.70;;
35644;SDS011;21764;52.042;6.830;2023-06-10T07:33:55;7.72;;;4.18;;
35644;SDS011;21764;52.042;6.830;2023-06-10T07:38:56;7.43;;;4.05;;
35644;SDS011;21764;52.042;6.830;2023-06-10T07:43:56;8.85;;;4.00;;
35644;SDS011;21764;52.042;6.830;2023-06-10T07:48:57;9.68;;;4.20;;
35644;SDS011;21764;52.042;6.830;2023-06-10T07:53:58;9.13;;;4.07;;
35644;SDS011;21764;52.042;6.830;2023-06-10T07:58:58;10.93;;;3.83;;
35644;SDS011;21764;52.042;6.830;2023-06-10T08:03:59;6.97;;;4.07;;
35644;SDS011;21764;52.042;6.830;2023-06-10T08:09:00;7.65;;;3.80;;
35644;SDS011;21764;52.042;6.830;2023-06-10T08:14:01;6.22;;;3.88;;
35644;SDS011;21764;52.042;6.830;2023-06-10T08:19:02;6.57;;;4.03;;
35644;SDS011;21764;52.042;6.830;2023-06-10T08:24:03;10.60;;;4.07;;
35644;SDS011;21764;52.042;6.830;2023-06-10T08:29:03;9.73;;;4.57;;
35644;SDS011;21764;52.042;6.830;2023-06-10T08:34:04;7.60;;;4.10;;
35644;SDS011;21764;52.042;6.830;2023-06-10T08:39:05;5.68;;;4.07;;
35644;SDS011;21764;52.042;6.830;2023-06-10T08:44:16;4.45;;;3.53;;
35644;SDS011;21764;52.042;6.830;2023-06-10T08:49:22;4.43;;;3.83;;
35644;SDS011;21764;52.042;6.830;2023-06-10T08:54:25;6.35;;;4.20;;
35644;SDS011;21764;52.042;6.830;2023-06-10T08:59:28;9.05;;;4.53;;
35644;SDS011;21764;52.042;6.830;2023-06-10T09:04:29;9.93;;;5.20;;
35644;SDS011;21764;52.042;6.830;2023-06-10T09:09:30;11.05;;;5.00;;
35644;SDS011;21764;52.042;6.830;2023-06-10T09:14:32;12.37;;;5.43;;
35644;SDS011;21764;52.042;6.830;2023-06-10T09:19:33;11.00;;;5.22;;
35644;SDS011;21764;52.042;6.830;2023-06-10T09:29:52;7.03;;;4.65;;
35644;SDS011;21764;52.042;6.830;2023-06-10T09:34:57;10.82;;;5.95;;
35644;SDS011;21764;52.042;6.830;2023-06-10T09:40:05;16.65;;;8.77;;
35644;SDS011;21764;52.042;6.830;2023-06-10T09:45:08;17.35;;;11.68;;
35644;SDS011;21764;52.042;6.830;2023-06-10T09:50:09;10.32;;;9.43;;
35644;SDS011;21764;52.042;6.830;2023-06-10T09:55:10;10.52;;;6.40;;
35644;SDS011;21764;52.042;6.830;2023-06-10T10:00:11;10.45;;;9.38;;
35644;SDS011;21764;52.042;6.830;2023-06-10T10:05:13;8.67;;;5.33;;
35644;SDS011;21764;52.042;6.830;2023-06-10T10:10:15;10.23;;;5.47;;
35644;SDS011;21764;52.042;6.830;2023-06-10T10:15:17;9.93;;;4.50;;
35644;SDS011;21764;52.042;6.830;2023-06-10T10:20:20;6.75;;;4.70;;
35644;SDS011;21764;52.042;6.830;2023-06-10T10:25:40;11.02;;;4.57;;
35644;SDS011;21764;52.042;6.830;2023-06-10T10:30:42;10.73;;;4.30;;
35644;SDS011;21764;52.042;6.830;2023-06-10T10:35:49;7.50;;;4.28;;
35644;SDS011;21764;52.042;6.830;2023-06-10T10:40:50;8.00;;;4.30;;
35644;SDS011;21764;52.042;6.830;2023-06-10T10:45:58;7.28;;;4.85;;
35644;SDS011;21764;52.042;6.830;2023-06-10T10:51:06;13.27;;;4.72;;
35644;SDS011;21764;52.042;6.830;2023-06-10T10:56:12;7.00;;;4.57;;
35644;SDS011;21764;52.042;6.830;2023-06-10T11:01:14;9.70;;;4.63;;
35644;SDS011;21764;52.042;6.830;2023-06-10T11:06:16;8.35;;;4.50;;
35644;SDS011;21764;52.042;6.830;2023-06-10T11:11:23;12.57;;;4.38;;
35644;SDS011;21764;52.042;6.830;2023-06-10T11:16:27;7.93;;;4.72;;
35644;SDS011;21764;52.042;6.830;2023-06-10T11:21:29;10.00;;;5.40;;
35644;SDS011;21764;52.042;6.830;2023-06-10T11:26:29;9.50;;;5.20;;
35644;SDS011;21764;52.042;6.830;2023-06-10T11:36:40;11.77;;;4.82;;
35644;SDS011;21764;52.042;6.830;2023-06-10T11:41:45;7.43;;;4.47;;
35644;SDS011;21764;52.042;6.830;2023-06-10T11:46:47;10.40;;;5.47;;
35644;SDS011;21764;52.042;6.830;2023-06-10T11:51:49;8.67;;;4.60;;
35644;SDS011;21764;52.042;6.830;2023-06-10T11:56:56;9.93;;;5.03;;
35644;SDS011;21764;52.042;6.830;2023-06-10T12:01:58;12.35;;;5.03;;
35644;SDS011;21764;52.042;6.830;2023-06-10T12:06:59;8.27;;;4.82;;
35644;SDS011;21764;52.042;6.830;2023-06-10T12:12:00;8.38;;;4.70;;
35644;SDS011;21764;52.042;6.830;2023-06-10T12:17:07;7.78;;;4.82;;
35644;SDS011;21764;52.042;6.830;2023-06-10T12:22:08;8.23;;;4.85;;
35644;SDS011;21764;52.042;6.830;2023-06-10T12:27:12;7.18;;;5.00;;
35644;SDS011;21764;52.042;6.830;2023-06-10T12:37:15;7.03;;;5.03;;
35644;SDS011;21764;52.042;6.830;2023-06-10T12:42:16;12.05;;;5.53;;
35644;SDS011;21764;52.042;6.830;2023-06-10T12:47:17;5.93;;;4.03;;
35644;SDS011;21764;52.042;6.830;2023-06-10T12:52:18;7.20;;;5.00;;
35644;SDS011;21764;52.042;6.830;2023-06-10T12:57:18;8.13;;;5.18;;
35644;SDS011;21764;52.042;6.830;2023-06-10T13:02:19;8.93;;;4.95;;
35644;SDS011;21764;52.042;6.830;2023-06-10T13:07:20;9.93;;;4.72;;
35644;SDS011;21764;52.042;6.830;2023-06-10T13:12:22;9.13;;;5.10;;
35644;SDS011;21764;52.042;6.830;2023-06-10T13:17:25;9.27;;;5.47;;
35644;SDS011;21764;52.042;6.830;2023-06-10T13:22:26;7.90;;;4.80;;
35644;SDS011;21764;52.042;6.830;2023-06-10T13:27:27;4.95;;;4.28;;
35644;SDS011;21764;52.042;6.830;2023-06-10T13:32:28;9.20;;;5.25;;
35644;SDS011;21764;52.042;6.830;2023-06-10T13:37:28;13.52;;;5.60;;
35644;SDS011;21764;52.042;6.830;2023-06-10T13:42:29;11.45;;;5.03;;
35644;SDS011;21764;52.042;6.830;2023-06-10T13:47:30;6.53;;;4.70;;
35644;SDS011;21764;52.042;6.830;2023-06-10T13:52:31;8.73;;;5.05;;
35644;SDS011;21764;52.042;6.830;2023-06-10T13:57:31;10.38;;;5.50;;
35644;SDS011;21764;52.042;6.830;2023-06-10T14:02:33;9.18;;;5.22;;
35644;SDS011;21764;52.042;6.830;2023-06-10T14:07:34;7.85;;;5.18;;
35644;SDS011;21764;52.042;6.830;2023-06-10T14:12:37;9.43;;;5.30;;
35644;SDS011;21764;52.042;6.830;2023-06-10T14:17:37;14.68;;;5.57;;
35644;SDS011;21764;52.042;6.830;2023-06-10T14:22:38;8.68;;;5.18;;
35644;SDS011;21764;52.042;6.830;2023-06-10T14:27:39;9.73;;;5.35;;
35644;SDS011;21764;52.042;6.830;2023-06-10T14:32:42;8.07;;;4.93;;
35644;SDS011;21764;52.042;6.830;2023-06-10T14:37:43;10.93;;;5.35;;
35644;SDS011;21764;52.042;6.830;2023-06-10T14:42:43;11.88;;;5.22;;
35644;SDS011;21764;52.042;6.830;2023-06-10T14:47:44;6.47;;;5.20;;
35644;SDS011;21764;52.042;6.830;2023-06-10T14:52:46;13.73;;;5.57;;
35644;SDS011;21764;52.042;6.830;2023-06-10T14:57:47;8.27;;;5.57;;
35644;SDS011;21764;52.042;6.830;2023-06-10T15:02:48;7.40;;;5.18;;
35644;SDS011;21764;52.042;6.830;2023-06-10T15:07:49;10.70;;;5.68;;
35644;SDS011;21764;52.042;6.830;2023-06-10T15:12:49;9.18;;;5.55;;
35644;SDS011;21764;52.042;6.830;2023-06-10T15:17:55;8.70;;;5.63;;
35644;SDS011;21764;52.042;6.830;2023-06-10T15:22:56;12.52;;;5.93;;
35644;SDS011;21764;52.042;6.830;2023-06-10T15:27:56;7.93;;;5.25;;
35644;SDS011;21764;52.042;6.830;2023-06-10T15:32:57;8.93;;;5.90;;
35644;SDS011;21764;52.042;6.830;2023-06-10T15:37:58;9.18;;;5.93;;
35644;SDS011;21764;52.042;6.830;2023-06-10T15:42:58;9.45;;;6.13;;
35644;SDS011;21764;52.042;6.830;2023-06-10T15:47:59;7.03;;;5.45;;
35644;SDS011;21764;52.042;6.830;2023-06-10T15:53:00;10.20;;;5.45;;
35644;SDS011;21764;52.042;6.830;2023-06-10T15:58:00;12.63;;;5.78;;
35644;SDS011;21764;52.042;6.830;2023-06-10T16:03:03;9.82;;;5.97;;
35644;SDS011;21764;52.042;6.830;2023-06-10T16:08:04;14.57;;;5.72;;
35644;SDS011;21764;52.042;6.830;2023-06-10T16:13:05;12.00;;;5.47;;
35644;SDS011;21764;52.042;6.830;2023-06-10T16:18:07;11.55;;;5.85;;
35644;SDS011;21764;52.042;6.830;2023-06-10T16:23:07;9.63;;;5.97;;
35644;SDS011;21764;52.042;6.830;2023-06-10T16:28:08;7.60;;;5.63;;
35644;SDS011;21764;52.042;6.830;2023-06-10T16:33:09;9.95;;;5.68;;
35644;SDS011;21764;52.042;6.830;2023-06-10T16:38:10;8.40;;;5.40;;
35644;SDS011;21764;52.042;6.830;2023-06-10T16:43:11;7.55;;;5.63;;
35644;SDS011;21764;52.042;6.830;2023-06-10T16:48:11;10.60;;;7.25;;
35644;SDS011;21764;52.042;6.830;2023-06-10T16:53:13;11.70;;;6.38;;
35644;SDS011;21764;52.042;6.830;2023-06-10T16:58:13;11.68;;;6.25;;
35644;SDS011;21764;52.042;6.830;2023-06-10T17:03:14;13.50;;;5.85;;
35644;SDS011;21764;52.042;6.830;2023-06-10T17:08:15;10.80;;;5.78;;
35644;SDS011;21764;52.042;6.830;2023-06-10T17:13:15;12.63;;;6.13;;
35644;SDS011;21764;52.042;6.830;2023-06-10T17:18:16;10.15;;;5.85;;
35644;SDS011;21764;52.042;6.830;2023-06-10T17:23:16;9.13;;;5.30;;
35644;SDS011;21764;52.042;6.830;2023-06-10T17:28:17;7.78;;;5.72;;
35644;SDS011;21764;52.042;6.830;2023-06-10T17:33:18;9.50;;;6.32;;
35644;SDS011;21764;52.042;6.830;2023-06-10T17:38:19;12.18;;;5.80;;
35644;SDS011;21764;52.042;6.830;2023-06-10T17:43:22;12.20;;;6.18;;
35644;SDS011;21764;52.042;6.830;2023-06-10T17:48:23;11.63;;;5.90;;
35644;SDS011;21764;52.042;6.830;2023-06-10T17:53:24;10.32;;;6.20;;
35644;SDS011;21764;52.042;6.830;2023-06-10T17:58:25;8.43;;;5.70;;
35644;SDS011;21764;52.042;6.830;2023-06-10T18:03:25;7.70;;;5.85;;
35644;SDS011;21764;52.042;6.830;2023-06-10T18:08:26;12.43;;;6.03;;
35644;SDS011;21764;52.042;6.830;2023-06-10T18:13:28;10.18;;;5.70;;
35644;SDS011;21764;52.042;6.830;2023-06-10T18:18:29;8.85;;;6.07;;
35644;SDS011;21764;52.042;6.830;2023-06-10T18:23:29;9.32;;;5.60;;
35644;SDS011;21764;52.042;6.830;2023-06-10T18:28:30;10.07;;;5.55;;
35644;SDS011;21764;52.042;6.830;2023-06-10T18:33:31;7.30;;;5.40;;
35644;SDS011;21764;52.042;6.830;2023-06-10T18:38:32;11.48;;;5.72;;
35644;SDS011;21764;52.042;6.830;2023-06-10T18:43:33;12.23;;;5.80;;
35644;SDS011;21764;52.042;6.830;2023-06-10T18:48:33;14.15;;;5.95;;
35644;SDS011;21764;52.042;6.830;2023-06-10T18:53:34;9.10;;;6.40;;
35644;SDS011;21764;52.042;6.830;2023-06-10T18:58:35;11.32;;;6.72;;
35644;SDS011;21764;52.042;6.830;2023-06-10T19:03:35;9.85;;;6.75;;
35644;SDS011;21764;52.042;6.830;2023-06-10T19:08:36;12.68;;;7.45;;
35644;SDS011;21764;52.042;6.830;2023-06-10T19:13:37;9.80;;;6.57;;
35644;SDS011;21764;52.042;6.830;2023-06-10T19:18:37;10.80;;;7.30;;
35644;SDS011;21764;52.042;6.830;2023-06-10T19:23:38;12.05;;;8.32;;
35644;SDS011;21764;52.042;6.830;2023-06-10T19:28:39;11.90;;;6.72;;
35644;SDS011;21764;52.042;6.830;2023-06-10T19:33:42;17.47;;;9.47;;
35644;SDS011;21764;52.042;6.830;2023-06-10T19:38:43;16.38;;;10.20;;
35644;SDS011;21764;52.042;6.830;2023-06-10T19:43:43;15.98;;;9.48;;
35644;SDS011;21764;52.042;6.830;2023-06-10T19:48:44;10.40;;;6.68;;
35644;SDS011;21764;52.042;6.830;2023-06-10T19:53:48;17.30;;;6.23;;
35644;SDS011;21764;52.042;6.830;2023-06-10T19:58:49;11.80;;;6.55;;
35644;SDS011;21764;52.042;6.830;2023-06-10T20:03:49;11.75;;;5.95;;
35644;SDS011;21764;52.042;6.830;2023-06-10T20:08:50;9.70;;;6.38;;
35644;SDS011;21764;52.042;6.830;2023-06-10T20:13:51;10.95;;;6.88;;
35644;SDS011;21764;52.042;6.830;2023-06-10T20:18:52;16.13;;;6.95;;
35644;SDS011;21764;52.042;6.830;2023-06-10T20:23:52;10.82;;;6.55;;
35644;SDS011;21764;52.042;6.830;2023-06-10T20:28:53;20.83;;;7.82;;
35644;SDS011;21764;52.042;6.830;2023-06-10T20:33:54;13.77;;;6.93;;
35644;SDS011;21764;52.042;6.830;2023-06-10T20:38:55;12.35;;;6.88;;
35644;SDS011;21764;52.042;6.830;2023-06-10T20:43:55;13.35;;;6.50;;
35644;SDS011;21764;52.042;6.830;2023-06-10T20:48:57;12.82;;;6.97;;
35644;SDS011;21764;52.042;6.830;2023-06-10T20:54:01;17.08;;;7.30;;
35644;SDS011;21764;52.042;6.830;2023-06-10T20:59:01;13.10;;;7.13;;
35644;SDS011;21764;52.042;6.830;2023-06-10T21:04:02;12.23;;;7.45;;
35644;SDS011;21764;52.042;6.830;2023-06-10T21:09:03;11.15;;;7.55;;
35644;SDS011;21764;52.042;6.830;2023-06-10T21:14:06;19.15;;;7.55;;
35644;SDS011;21764;52.042;6.830;2023-06-10T21:19:07;11.63;;;7.45;;
35644;SDS011;21764;52.042;6.830;2023-06-10T21:24:08;12.50;;;8.45;;
35644;SDS011;21764;52.042;6.830;2023-06-10T21:29:08;13.27;;;7.53;;
35644;SDS011;21764;52.042;6.830;2023-06-10T21:34:09;12.10;;;7.10;;
35644;SDS011;21764;52.042;6.830;2023-06-10T21:39:10;16.77;;;7.68;;
35644;SDS011;21764;52.042;6.830;2023-06-10T21:44:10;12.40;;;7.68;;
35644;SDS011;21764;52.042;6.830;2023-06-10T21:49:11;12.43;;;8.10;;
35644;SDS011;21764;52.042;6.830;2023-06-10T21:54:12;13.68;;;8.18;;
35644;SDS011;21764;52.042;6.830;2023-06-10T21:59:15;12.85;;;8.25;;
35644;SDS011;21764;52.042;6.830;2023-06-10T22:04:17;14.88;;;8.45;;
35644;SDS011;21764;52.042;6.830;2023-06-10T22:09:18;15.63;;;8.65;;
35644;SDS011;21764;52.042;6.830;2023-06-10T22:14:19;15.50;;;8.93;;
35644;SDS011;21764;52.042;6.830;2023-06-10T22:19:19;13.20;;;8.57;;
35644;SDS011;21764;52.042;6.830;2023-06-10T22:24:20;16.45;;;8.45;;
35644;SDS011;21764;52.042;6.830;2023-06-10T22:29:21;13.35;;;8.57;;
35644;SDS011;21764;52.042;6.830;2023-06-10T22:34:21;14.60;;;8.98;;
35644;SDS011;21764;52.042;6.830;2023-06-10T22:39:22;14.00;;;9.48;;
35644;SDS011;21764;52.042;6.830;2023-06-10T22:44:24;13.85;;;9.55;;
35644;SDS011;21764;52.042;6.830;2023-06-10T22:49:24;19.20;;;9.57;;
35644;SDS011;21764;52.042;6.830;2023-06-10T22:54:25;14.52;;;8.85;;
35644;SDS011;21764;52.042;6.830;2023-06-10T22:59:26;14.05;;;8.60;;
35644;SDS011;21764;52.042;6.830;2023-06-10T23:04:27;13.25;;;9.40;;
35644;SDS011;21764;52.042;6.830;2023-06-10T23:09:28;17.90;;;10.02;;
35644;SDS011;21764;52.042;6.830;2023-06-10T23:14:28;17.27;;;10.70;;
35644;SDS011;21764;52.042;6.830;2023-06-10T23:19:29;22.13;;;9.45;;
35644;SDS011;21764;52.042;6.830;2023-06-10T23:24:30;14.57;;;9.20;;
35644;SDS011;21764;52.042;6.830;2023-06-10T23:29:31;11.65;;;8.60;;
35644;SDS011;21764;52.042;6.830;2023-06-10T23:34:31;11.98;;;8.30;;
35644;SDS011;21764;52.042;6.830;2023-06-10T23:39:32;10.68;;;7.95;;
35644;SDS011;21764;52.042;6.830;2023-06-10T23:44:32;16.63;;;8.90;;
35644;SDS011;21764;52.042;6.830;2023-06-10T23:49:33;12.20;;;9.32;;
35644;SDS011;21764;52.042;6.830;2023-06-10T23:54:34;14.75;;;8.15;;
35644;SDS011;21764;52.042;6.830;2023-06-10T23:59:34;15.75;;;7.80;;
